New Market, Indiana
Current Conditions -  °F | °C
As of 4:15 PM on Monday 22 Dec 2014 (Local Time) from K4I7 Reporting Station
Overcast Overcast  
Wind Chill: 35°   Ceiling: 3900
Heat Index: 41°   Visibility: 7mi
Dew Point: 36°   Wind: 9mph
Humidity: 81%   Direction: 120°ESE
Pressure: 29.74"   Gusts: NA
Location:  39.95°N, 86.92°W
Report Text: K4I7 222115Z AUTO 12008KT 7SM SCT033 BKN039 OVC065 05/02 A2974 RMK AO2
Loading
Personal Weather Stations






























Interactive Weather Map New forecast layout! Learn more

10-Day Weather Forecast

Advertisements
Track Severe Weather on mobile